sensor_id;sensor_type;location;lat;lon;timestamp;temperature;humidity
68251;DHT22;55066;51.560;4.642;2023-08-30T00:01:24;11.81;97.93
68251;DHT22;55066;51.560;4.642;2023-08-30T00:03:51;11.90;98.65
68251;DHT22;55066;51.560;4.642;2023-08-30T00:06:16;11.85;96.93
68251;DHT22;55066;51.560;4.642;2023-08-30T00:08:42;11.68;99.53
68251;DHT22;55066;51.560;4.642;2023-08-30T00:11:07;11.67;98.74
68251;DHT22;55066;51.560;4.642;2023-08-30T00:13:33;11.69;97.99
68251;DHT22;55066;51.560;4.642;2023-08-30T00:15:59;11.75;98.49
68251;DHT22;55066;51.560;4.642;2023-08-30T00:18:25;11.85;98.00
68251;DHT22;55066;51.560;4.642;2023-08-30T00:20:50;11.88;96.50
68251;DHT22;55066;51.560;4.642;2023-08-30T00:23:16;11.90;96.38
68251;DHT22;55066;51.560;4.642;2023-08-30T00:25:42;11.93;96.36
68251;DHT22;55066;51.560;4.642;2023-08-30T00:28:08;11.82;97.56
68251;DHT22;55066;51.560;4.642;2023-08-30T00:30:35;11.48;99.19
68251;DHT22;55066;51.560;4.642;2023-08-30T00:33:03;11.48;97.56
68251;DHT22;55066;51.560;4.642;2023-08-30T00:35:29;11.54;99.69
68251;DHT22;55066;51.560;4.642;2023-08-30T00:37:54;11.27;99.02
68251;DHT22;55066;51.560;4.642;2023-08-30T00:40:23;11.58;97.85
68251;DHT22;55066;51.560;4.642;2023-08-30T00:42:49;11.65;98.62
68251;DHT22;55066;51.560;4.642;2023-08-30T00:45:15;11.69;97.16
68251;DHT22;55066;51.560;4.642;2023-08-30T00:47:42;11.72;97.41
68251;DHT22;55066;51.560;4.642;2023-08-30T00:50:09;11.67;96.34
68251;DHT22;55066;51.560;4.642;2023-08-30T00:52:35;11.64;98.27
68251;DHT22;55066;51.560;4.642;2023-08-30T00:55:01;11.57;99.28
68251;DHT22;55066;51.560;4.642;2023-08-30T00:57:26;11.55;97.76
68251;DHT22;55066;51.560;4.642;2023-08-30T00:59:53;11.50;99.99
68251;DHT22;55066;51.560;4.642;2023-08-30T01:02:20;11.40;98.39
68251;DHT22;55066;51.560;4.642;2023-08-30T01:04:47;11.47;99.99
68251;DHT22;55066;51.560;4.642;2023-08-30T01:07:12;11.31;99.86
68251;DHT22;55066;51.560;4.642;2023-08-30T01:09:38;11.28;99.81
68251;DHT22;55066;51.560;4.642;2023-08-30T01:12:14;11.19;99.99
68251;DHT22;55066;51.560;4.642;2023-08-30T01:14:48;11.24;98.20
68251;DHT22;55066;51.560;4.642;2023-08-30T01:17:17;11.17;99.23
68251;DHT22;55066;51.560;4.642;2023-08-30T01:27:42;11.37;98.37
68251;DHT22;55066;51.560;4.642;2023-08-30T01:30:11;11.26;99.29
68251;DHT22;55066;51.560;4.642;2023-08-30T01:32:38;11.23;98.01
68251;DHT22;55066;51.560;4.642;2023-08-30T01:35:06;11.30;99.99
68251;DHT22;55066;51.560;4.642;2023-08-30T01:37:32;11.09;99.99
68251;DHT22;55066;51.560;4.642;2023-08-30T01:39:59;11.10;99.16
68251;DHT22;55066;51.560;4.642;2023-08-30T01:42:26;11.20;99.99
68251;DHT22;55066;51.560;4.642;2023-08-30T01:44:55;10.96;99.99
68251;DHT22;55066;51.560;4.642;2023-08-30T01:47:27;11.02;99.99
68251;DHT22;55066;51.560;4.642;2023-08-30T01:49:55;11.06;98.46
68251;DHT22;55066;51.560;4.642;2023-08-30T01:52:23;11.14;98.48
68251;DHT22;55066;51.560;4.642;2023-08-30T01:54:51;11.20;97.31
68251;DHT22;55066;51.560;4.642;2023-08-30T01:57:18;11.22;98.89
68251;DHT22;55066;51.560;4.642;2023-08-30T01:59:44;11.12;98.45
68251;DHT22;55066;51.560;4.642;2023-08-30T02:02:10;11.12;99.84
68251;DHT22;55066;51.560;4.642;2023-08-30T02:04:35;11.13;98.93
68251;DHT22;55066;51.560;4.642;2023-08-30T02:07:04;11.04;99.99
68251;DHT22;55066;51.560;4.642;2023-08-30T02:09:36;11.22;99.24
68251;DHT22;55066;51.560;4.642;2023-08-30T02:12:10;11.12;99.99
68251;DHT22;55066;51.560;4.642;2023-08-30T02:14:39;11.02;99.99
68251;DHT22;55066;51.560;4.642;2023-08-30T02:17:05;10.91;99.99
68251;DHT22;55066;51.560;4.642;2023-08-30T02:19:32;10.93;99.99
68251;DHT22;55066;51.560;4.642;2023-08-30T02:21:59;11.06;99.76
68251;DHT22;55066;51.560;4.642;2023-08-30T02:24:24;11.28;99.99
68251;DHT22;55066;51.560;4.642;2023-08-30T02:26:50;11.31;99.99
68251;DHT22;55066;51.560;4.642;2023-08-30T02:29:15;11.35;99.99
68251;DHT22;55066;51.560;4.642;2023-08-30T02:31:41;11.48;99.99
68251;DHT22;55066;51.560;4.642;2023-08-30T02:34:06;11.51;99.99
68251;DHT22;55066;51.560;4.642;2023-08-30T02:36:33;11.44;99.99
68251;DHT22;55066;51.560;4.642;2023-08-30T02:38:59;11.55;99.99
68251;DHT22;55066;51.560;4.642;2023-08-30T02:41:24;11.62;99.99
68251;DHT22;55066;51.560;4.642;2023-08-30T02:43:50;11.62;99.99
68251;DHT22;55066;51.560;4.642;2023-08-30T02:46:15;11.68;99.99
68251;DHT22;55066;51.560;4.642;2023-08-30T02:48:41;11.68;99.99
68251;DHT22;55066;51.560;4.642;2023-08-30T02:51:07;11.62;99.83
68251;DHT22;55066;51.560;4.642;2023-08-30T02:53:32;11.61;99.99
68251;DHT22;55066;51.560;4.642;2023-08-30T02:55:58;11.47;99.59
68251;DHT22;55066;51.560;4.642;2023-08-30T02:58:23;11.34;99.50
68251;DHT22;55066;51.560;4.642;2023-08-30T03:00:52;11.47;99.99
68251;DHT22;55066;51.560;4.642;2023-08-30T03:03:20;11.47;99.99
68251;DHT22;55066;51.560;4.642;2023-08-30T03:05:45;11.48;99.99
68251;DHT22;55066;51.560;4.642;2023-08-30T03:08:10;11.58;99.99
68251;DHT22;55066;51.560;4.642;2023-08-30T03:10:36;11.68;99.99
68251;DHT22;55066;51.560;4.642;2023-08-30T03:13:02;11.72;99.99
68251;DHT22;55066;51.560;4.642;2023-08-30T03:15:31;11.78;99.99
68251;DHT22;55066;51.560;4.642;2023-08-30T03:17:57;11.79;99.99
68251;DHT22;55066;51.560;4.642;2023-08-30T03:20:23;11.72;99.99
68251;DHT22;55066;51.560;4.642;2023-08-30T03:22:48;11.78;99.99
68251;DHT22;55066;51.560;4.642;2023-08-30T03:25:14;11.83;99.99
68251;DHT22;55066;51.560;4.642;2023-08-30T03:27:39;11.79;99.99
68251;DHT22;55066;51.560;4.642;2023-08-30T03:30:06;11.81;99.99
68251;DHT22;55066;51.560;4.642;2023-08-30T03:32:33;11.71;99.99
68251;DHT22;55066;51.560;4.642;2023-08-30T03:34:59;11.58;99.99
68251;DHT22;55066;51.560;4.642;2023-08-30T03:37:24;11.51;99.99
68251;DHT22;55066;51.560;4.642;2023-08-30T03:39:51;11.51;99.99
68251;DHT22;55066;51.560;4.642;2023-08-30T03:42:16;11.52;99.99
68251;DHT22;55066;51.560;4.642;2023-08-30T03:44:42;11.55;99.99
68251;DHT22;55066;51.560;4.642;2023-08-30T03:47:07;11.62;99.99
68251;DHT22;55066;51.560;4.642;2023-08-30T03:49:33;11.58;99.99
68251;DHT22;55066;51.560;4.642;2023-08-30T03:51:58;11.67;99.99
68251;DHT22;55066;51.560;4.642;2023-08-30T03:54:24;11.62;99.99
68251;DHT22;55066;51.560;4.642;2023-08-30T03:56:51;11.62;99.99
68251;DHT22;55066;51.560;4.642;2023-08-30T03:59:16;11.51;99.99
68251;DHT22;55066;51.560;4.642;2023-08-30T04:01:43;11.52;99.99
68251;DHT22;55066;51.560;4.642;2023-08-30T04:04:09;11.50;99.99
68251;DHT22;55066;51.560;4.642;2023-08-30T04:06:35;11.48;99.99
68251;DHT22;55066;51.560;4.642;2023-08-30T04:09:00;11.58;99.99
68251;DHT22;55066;51.560;4.642;2023-08-30T04:11:26;11.67;99.99
68251;DHT22;55066;51.560;4.642;2023-08-30T04:13:51;11.85;99.99
68251;DHT22;55066;51.560;4.642;2023-08-30T04:16:18;11.92;99.99
68251;DHT22;55066;51.560;4.642;2023-08-30T04:18:44;11.95;99.99
68251;DHT22;55066;51.560;4.642;2023-08-30T04:21:10;11.99;99.99
68251;DHT22;55066;51.560;4.642;2023-08-30T04:23:36;12.02;99.99
68251;DHT22;55066;51.560;4.642;2023-08-30T04:26:01;12.06;99.99
68251;DHT22;55066;51.560;4.642;2023-08-30T04:28:28;12.13;99.99
68251;DHT22;55066;51.560;4.642;2023-08-30T04:30:54;12.09;99.99
68251;DHT22;55066;51.560;4.642;2023-08-30T04:33:20;12.16;99.99
68251;DHT22;55066;51.560;4.642;2023-08-30T04:35:53;12.16;99.99
68251;DHT22;55066;51.560;4.642;2023-08-30T04:38:20;12.23;99.99
68251;DHT22;55066;51.560;4.642;2023-08-30T04:40:47;12.26;99.99
68251;DHT22;55066;51.560;4.642;2023-08-30T04:43:14;12.32;99.99
68251;DHT22;55066;51.560;4.642;2023-08-30T04:45:40;12.37;99.99
68251;DHT22;55066;51.560;4.642;2023-08-30T04:48:06;12.40;99.99
68251;DHT22;55066;51.560;4.642;2023-08-30T04:50:33;12.43;99.99
68251;DHT22;55066;51.560;4.642;2023-08-30T04:52:59;12.43;99.99
68251;DHT22;55066;51.560;4.642;2023-08-30T04:55:25;12.47;99.99
68251;DHT22;55066;51.560;4.642;2023-08-30T04:57:51;12.51;99.99
68251;DHT22;55066;51.560;4.642;2023-08-30T05:00:17;12.60;99.99
68251;DHT22;55066;51.560;4.642;2023-08-30T05:02:44;12.62;99.99
68251;DHT22;55066;51.560;4.642;2023-08-30T05:05:13;12.65;99.99
68251;DHT22;55066;51.560;4.642;2023-08-30T05:07:39;12.67;99.99
68251;DHT22;55066;51.560;4.642;2023-08-30T05:10:05;12.68;99.99
68251;DHT22;55066;51.560;4.642;2023-08-30T05:12:34;12.71;99.99
68251;DHT22;55066;51.560;4.642;2023-08-30T05:15:00;12.75;99.99
68251;DHT22;55066;51.560;4.642;2023-08-30T05:17:27;12.74;99.99
68251;DHT22;55066;51.560;4.642;2023-08-30T05:19:55;12.78;99.99
68251;DHT22;55066;51.560;4.642;2023-08-30T05:22:21;12.78;99.99
68251;DHT22;55066;51.560;4.642;2023-08-30T05:24:47;12.74;99.99
68251;DHT22;55066;51.560;4.642;2023-08-30T05:27:13;12.71;99.99
68251;DHT22;55066;51.560;4.642;2023-08-30T05:29:40;12.67;99.99
68251;DHT22;55066;51.560;4.642;2023-08-30T05:32:06;12.58;99.99
68251;DHT22;55066;51.560;4.642;2023-08-30T05:34:43;12.51;99.99
68251;DHT22;55066;51.560;4.642;2023-08-30T05:37:31;12.47;99.99
68251;DHT22;55066;51.560;4.642;2023-08-30T05:40:17;12.37;99.99
68251;DHT22;55066;51.560;4.642;2023-08-30T05:42:43;12.38;99.99
68251;DHT22;55066;51.560;4.642;2023-08-30T05:45:09;12.43;99.99
68251;DHT22;55066;51.560;4.642;2023-08-30T05:47:34;12.48;99.99
68251;DHT22;55066;51.560;4.642;2023-08-30T05:50:00;12.47;99.99
68251;DHT22;55066;51.560;4.642;2023-08-30T05:52:25;12.43;99.99
68251;DHT22;55066;51.560;4.642;2023-08-30T05:54:51;12.47;99.99
68251;DHT22;55066;51.560;4.642;2023-08-30T05:57:17;12.47;99.99
68251;DHT22;55066;51.560;4.642;2023-08-30T05:59:43;12.48;99.99
68251;DHT22;55066;51.560;4.642;2023-08-30T06:02:09;12.41;99.99
68251;DHT22;55066;51.560;4.642;2023-08-30T06:04:35;12.43;99.99
68251;DHT22;55066;51.560;4.642;2023-08-30T06:07:01;12.43;99.99
68251;DHT22;55066;51.560;4.642;2023-08-30T06:09:26;12.37;99.99
68251;DHT22;55066;51.560;4.642;2023-08-30T06:11:52;12.40;99.99
68251;DHT22;55066;51.560;4.642;2023-08-30T06:14:17;12.53;99.99
68251;DHT22;55066;51.560;4.642;2023-08-30T06:16:43;12.41;99.99
68251;DHT22;55066;51.560;4.642;2023-08-30T06:19:10;12.57;99.99
68251;DHT22;55066;51.560;4.642;2023-08-30T06:21:36;12.64;99.99
68251;DHT22;55066;51.560;4.642;2023-08-30T06:24:03;12.62;99.99
68251;DHT22;55066;51.560;4.642;2023-08-30T06:26:29;12.65;99.99
68251;DHT22;55066;51.560;4.642;2023-08-30T06:28:54;12.68;99.99
68251;DHT22;55066;51.560;4.642;2023-08-30T06:31:20;12.65;99.99
68251;DHT22;55066;51.560;4.642;2023-08-30T06:33:45;12.68;99.99
68251;DHT22;55066;51.560;4.642;2023-08-30T06:36:13;12.69;99.99
68251;DHT22;55066;51.560;4.642;2023-08-30T06:38:41;12.74;99.99
68251;DHT22;55066;51.560;4.642;2023-08-30T06:41:07;12.77;99.99
68251;DHT22;55066;51.560;4.642;2023-08-30T06:43:32;12.81;99.99
68251;DHT22;55066;51.560;4.642;2023-08-30T06:45:58;12.84;99.99
68251;DHT22;55066;51.560;4.642;2023-08-30T06:48:24;12.85;99.99
68251;DHT22;55066;51.560;4.642;2023-08-30T06:50:50;12.88;99.99
68251;DHT22;55066;51.560;4.642;2023-08-30T06:53:15;12.91;99.99
68251;DHT22;55066;51.560;4.642;2023-08-30T06:55:41;12.95;99.99
68251;DHT22;55066;51.560;4.642;2023-08-30T06:58:06;12.96;99.99
68251;DHT22;55066;51.560;4.642;2023-08-30T07:00:32;13.02;99.99
68251;DHT22;55066;51.560;4.642;2023-08-30T07:02:58;13.02;99.99
68251;DHT22;55066;51.560;4.642;2023-08-30T07:05:23;13.10;99.99
68251;DHT22;55066;51.560;4.642;2023-08-30T07:07:49;13.10;99.99
68251;DHT22;55066;51.560;4.642;2023-08-30T07:10:15;13.16;99.99
68251;DHT22;55066;51.560;4.642;2023-08-30T07:12:41;13.24;99.99
68251;DHT22;55066;51.560;4.642;2023-08-30T07:15:07;13.30;99.99
68251;DHT22;55066;51.560;4.642;2023-08-30T07:17:33;13.44;99.99
68251;DHT22;55066;51.560;4.642;2023-08-30T07:19:58;13.50;99.99
68251;DHT22;55066;51.560;4.642;2023-08-30T07:22:24;13.53;99.99
68251;DHT22;55066;51.560;4.642;2023-08-30T07:24:49;13.51;99.99
68251;DHT22;55066;51.560;4.642;2023-08-30T07:27:15;13.64;99.99
68251;DHT22;55066;51.560;4.642;2023-08-30T07:29:40;13.65;99.99
68251;DHT22;55066;51.560;4.642;2023-08-30T07:32:07;13.63;99.99
68251;DHT22;55066;51.560;4.642;2023-08-30T07:34:32;13.64;99.99
68251;DHT22;55066;51.560;4.642;2023-08-30T07:36:58;13.65;99.99
68251;DHT22;55066;51.560;4.642;2023-08-30T07:39:25;13.71;99.99
68251;DHT22;55066;51.560;4.642;2023-08-30T07:41:50;13.79;99.99
68251;DHT22;55066;51.560;4.642;2023-08-30T07:44:16;13.86;99.99
68251;DHT22;55066;51.560;4.642;2023-08-30T07:46:41;13.92;99.99
68251;DHT22;55066;51.560;4.642;2023-08-30T07:49:07;14.00;99.99
68251;DHT22;55066;51.560;4.642;2023-08-30T07:51:33;14.16;99.99
68251;DHT22;55066;51.560;4.642;2023-08-30T07:53:58;14.23;99.99
68251;DHT22;55066;51.560;4.642;2023-08-30T07:56:24;14.43;99.99
68251;DHT22;55066;51.560;4.642;2023-08-30T07:58:49;14.56;99.99
68251;DHT22;55066;51.560;4.642;2023-08-30T08:01:15;14.83;99.99
68251;DHT22;55066;51.560;4.642;2023-08-30T08:03:40;14.85;99.99
68251;DHT22;55066;51.560;4.642;2023-08-30T08:06:06;14.99;99.99
68251;DHT22;55066;51.560;4.642;2023-08-30T08:08:32;15.15;99.99
68251;DHT22;55066;51.560;4.642;2023-08-30T08:10:59;15.12;99.99
68251;DHT22;55066;51.560;4.642;2023-08-30T08:13:24;15.21;99.99
68251;DHT22;55066;51.560;4.642;2023-08-30T08:15:50;15.38;99.99
68251;DHT22;55066;51.560;4.642;2023-08-30T08:18:16;15.53;99.99
68251;DHT22;55066;51.560;4.642;2023-08-30T08:20:42;15.57;99.99
68251;DHT22;55066;51.560;4.642;2023-08-30T08:23:08;15.64;99.99
68251;DHT22;55066;51.560;4.642;2023-08-30T08:25:35;15.73;99.99
68251;DHT22;55066;51.560;4.642;2023-08-30T08:28:00;15.73;99.99
68251;DHT22;55066;51.560;4.642;2023-08-30T08:30:26;15.86;99.99
68251;DHT22;55066;51.560;4.642;2023-08-30T08:32:51;15.98;99.99
68251;DHT22;55066;51.560;4.642;2023-08-30T08:35:17;16.11;99.99
68251;DHT22;55066;51.560;4.642;2023-08-30T08:37:42;16.30;99.99
68251;DHT22;55066;51.560;4.642;2023-08-30T08:40:08;16.15;99.99
68251;DHT22;55066;51.560;4.642;2023-08-30T08:42:35;16.30;99.99
68251;DHT22;55066;51.560;4.642;2023-08-30T08:45:04;16.21;99.99
68251;DHT22;55066;51.560;4.642;2023-08-30T08:47:31;15.83;99.99
68251;DHT22;55066;51.560;4.642;2023-08-30T08:49:57;15.44;99.99
68251;DHT22;55066;51.560;4.642;2023-08-30T08:52:24;15.60;99.99
68251;DHT22;55066;51.560;4.642;2023-08-30T08:54:50;16.00;99.99
68251;DHT22;55066;51.560;4.642;2023-08-30T08:57:16;16.18;99.99
68251;DHT22;55066;51.560;4.642;2023-08-30T08:59:42;16.79;99.99
68251;DHT22;55066;51.560;4.642;2023-08-30T09:02:10;16.64;99.99
68251;DHT22;55066;51.560;4.642;2023-08-30T09:04:39;16.99;99.99
68251;DHT22;55066;51.560;4.642;2023-08-30T09:07:04;16.88;99.99
68251;DHT22;55066;51.560;4.642;2023-08-30T09:09:30;17.03;99.99
68251;DHT22;55066;51.560;4.642;2023-08-30T09:11:56;17.08;99.99
68251;DHT22;55066;51.560;4.642;2023-08-30T09:14:22;17.27;99.99
68251;DHT22;55066;51.560;4.642;2023-08-30T09:16:57;17.34;99.99
68251;DHT22;55066;51.560;4.642;2023-08-30T09:19:22;17.24;99.99
68251;DHT22;55066;51.560;4.642;2023-08-30T09:21:56;17.21;99.99
68251;DHT22;55066;51.560;4.642;2023-08-30T09:24:22;17.35;99.96
68251;DHT22;55066;51.560;4.642;2023-08-30T09:26:49;17.28;99.99
68251;DHT22;55066;51.560;4.642;2023-08-30T09:29:17;17.45;99.99
68251;DHT22;55066;51.560;4.642;2023-08-30T09:31:43;17.59;99.99
68251;DHT22;55066;51.560;4.642;2023-08-30T09:34:08;17.79;99.99
68251;DHT22;55066;51.560;4.642;2023-08-30T09:36:36;17.79;99.99
68251;DHT22;55066;51.560;4.642;2023-08-30T09:41:31;17.65;99.99
68251;DHT22;55066;51.560;4.642;2023-08-30T09:43:59;17.69;99.30
68251;DHT22;55066;51.560;4.642;2023-08-30T09:46:25;17.66;99.01
68251;DHT22;55066;51.560;4.642;2023-08-30T09:48:50;17.98;98.71
68251;DHT22;55066;51.560;4.642;2023-08-30T09:51:17;18.13;98.67
68251;DHT22;55066;51.560;4.642;2023-08-30T09:53:45;18.13;97.68
68251;DHT22;55066;51.560;4.642;2023-08-30T09:56:12;18.38;96.89
68251;DHT22;55066;51.560;4.642;2023-08-30T09:58:40;18.63;95.22
68251;DHT22;55066;51.560;4.642;2023-08-30T10:01:07;18.27;96.05
68251;DHT22;55066;51.560;4.642;2023-08-30T10:03:34;18.37;97.45
68251;DHT22;55066;51.560;4.642;2023-08-30T10:06:01;18.79;95.11
68251;DHT22;55066;51.560;4.642;2023-08-30T10:08:29;18.79;94.16
68251;DHT22;55066;51.560;4.642;2023-08-30T10:10:58;18.92;94.33
68251;DHT22;55066;51.560;4.642;2023-08-30T10:13:25;18.90;95.74
68251;DHT22;55066;51.560;4.642;2023-08-30T10:15:53;18.96;94.70
68251;DHT22;55066;51.560;4.642;2023-08-30T10:18:25;18.93;93.49
68251;DHT22;55066;51.560;4.642;2023-08-30T10:20:54;18.83;93.59
68251;DHT22;55066;51.560;4.642;2023-08-30T10:23:21;18.66;93.79
68251;DHT22;55066;51.560;4.642;2023-08-30T10:25:48;19.44;93.34
68251;DHT22;55066;51.560;4.642;2023-08-30T10:28:15;19.69;91.44
68251;DHT22;55066;51.560;4.642;2023-08-30T10:30:41;20.01;90.36
68251;DHT22;55066;51.560;4.642;2023-08-30T10:33:14;19.66;91.20
68251;DHT22;55066;51.560;4.642;2023-08-30T10:35:49;19.21;90.79
68251;DHT22;55066;51.560;4.642;2023-08-30T10:38:29;18.79;89.54
68251;DHT22;55066;51.560;4.642;2023-08-30T10:40:58;18.73;89.46
68251;DHT22;55066;51.560;4.642;2023-08-30T10:43:34;19.66;91.43
68251;DHT22;55066;51.560;4.642;2023-08-30T10:46:04;19.76;88.75
68251;DHT22;55066;51.560;4.642;2023-08-30T10:48:40;19.96;87.26
68251;DHT22;55066;51.560;4.642;2023-08-30T10:51:35;19.78;88.54
68251;DHT22;55066;51.560;4.642;2023-08-30T10:54:13;19.73;88.12
68251;DHT22;55066;51.560;4.642;2023-08-30T10:56:54;19.94;87.00
68251;DHT22;55066;51.560;4.642;2023-08-30T10:59:23;19.96;85.29
68251;DHT22;55066;51.560;4.642;2023-08-30T11:01:49;20.64;86.72
68251;DHT22;55066;51.560;4.642;2023-08-30T11:04:16;20.98;84.89
68251;DHT22;55066;51.560;4.642;2023-08-30T11:06:45;20.45;84.86
68251;DHT22;55066;51.560;4.642;2023-08-30T11:09:15;20.54;85.13
68251;DHT22;55066;51.560;4.642;2023-08-30T11:11:43;20.27;85.63
68251;DHT22;55066;51.560;4.642;2023-08-30T11:14:09;20.27;87.47
68251;DHT22;55066;51.560;4.642;2023-08-30T11:16:36;20.67;85.77
68251;DHT22;55066;51.560;4.642;2023-08-30T11:19:03;20.86;84.40
68251;DHT22;55066;51.560;4.642;2023-08-30T11:21:33;21.67;84.25
68251;DHT22;55066;51.560;4.642;2023-08-30T11:23:59;21.64;82.77
68251;DHT22;55066;51.560;4.642;2023-08-30T11:26:25;21.38;81.21
68251;DHT22;55066;51.560;4.642;2023-08-30T11:28:51;20.96;83.47
68251;DHT22;55066;51.560;4.642;2023-08-30T11:31:23;20.43;83.32
68251;DHT22;55066;51.560;4.642;2023-08-30T11:33:52;20.23;85.28
68251;DHT22;55066;51.560;4.642;2023-08-30T11:36:20;20.99;85.95
68251;DHT22;55066;51.560;4.642;2023-08-30T11:38:46;21.59;86.27
68251;DHT22;55066;51.560;4.642;2023-08-30T11:41:12;21.47;81.91
68251;DHT22;55066;51.560;4.642;2023-08-30T11:43:38;21.44;84.54
68251;DHT22;55066;51.560;4.642;2023-08-30T11:46:05;20.98;83.05
68251;DHT22;55066;51.560;4.642;2023-08-30T11:48:30;20.96;82.28
68251;DHT22;55066;51.560;4.642;2023-08-30T11:50:56;21.02;84.25
68251;DHT22;55066;51.560;4.642;2023-08-30T11:53:23;21.11;85.02
68251;DHT22;55066;51.560;4.642;2023-08-30T11:55:49;21.61;83.16
68251;DHT22;55066;51.560;4.642;2023-08-30T11:58:14;22.01;81.38
68251;DHT22;55066;51.560;4.642;2023-08-30T12:00:40;22.22;80.35
68251;DHT22;55066;51.560;4.642;2023-08-30T12:03:05;21.91;84.15
68251;DHT22;55066;51.560;4.642;2023-08-30T12:05:32;22.03;83.14
68251;DHT22;55066;51.560;4.642;2023-08-30T12:08:00;22.39;83.37
68251;DHT22;55066;51.560;4.642;2023-08-30T12:10:28;22.02;80.85
68251;DHT22;55066;51.560;4.642;2023-08-30T12:12:54;22.16;80.94
68251;DHT22;55066;51.560;4.642;2023-08-30T12:15:22;22.53;81.43
68251;DHT22;55066;51.560;4.642;2023-08-30T12:17:50;22.01;82.04
68251;DHT22;55066;51.560;4.642;2023-08-30T12:20:16;22.56;83.43
68251;DHT22;55066;51.560;4.642;2023-08-30T12:22:50;22.44;80.51
68251;DHT22;55066;51.560;4.642;2023-08-30T12:25:18;22.24;80.67
68251;DHT22;55066;51.560;4.642;2023-08-30T12:27:44;21.59;79.51
68251;DHT22;55066;51.560;4.642;2023-08-30T12:30:10;21.27;80.08
68251;DHT22;55066;51.560;4.642;2023-08-30T12:32:36;21.86;83.30
68251;DHT22;55066;51.560;4.642;2023-08-30T12:35:02;22.43;81.02
68251;DHT22;55066;51.560;4.642;2023-08-30T12:37:28;21.65;81.30
68251;DHT22;55066;51.560;4.642;2023-08-30T12:39:53;20.93;80.14
68251;DHT22;55066;51.560;4.642;2023-08-30T12:42:19;21.33;83.22
68251;DHT22;55066;51.560;4.642;2023-08-30T12:44:44;21.86;81.24
68251;DHT22;55066;51.560;4.642;2023-08-30T12:47:10;22.47;80.65
68251;DHT22;55066;51.560;4.642;2023-08-30T12:49:39;21.69;78.98
68251;DHT22;55066;51.560;4.642;2023-08-30T12:52:05;21.84;80.29
68251;DHT22;55066;51.560;4.642;2023-08-30T12:54:31;22.23;80.09
68251;DHT22;55066;51.560;4.642;2023-08-30T12:56:56;22.78;81.25
68251;DHT22;55066;51.560;4.642;2023-08-30T12:59:22;22.37;78.61
68251;DHT22;55066;51.560;4.642;2023-08-30T13:01:47;22.54;83.37
68251;DHT22;55066;51.560;4.642;2023-08-30T13:04:13;22.60;81.78
68251;DHT22;55066;51.560;4.642;2023-08-30T13:06:38;22.64;80.62
68251;DHT22;55066;51.560;4.642;2023-08-30T13:09:08;21.57;79.51
68251;DHT22;55066;51.560;4.642;2023-08-30T13:11:34;21.79;81.91
68251;DHT22;55066;51.560;4.642;2023-08-30T13:13:59;22.12;80.22
68251;DHT22;55066;51.560;4.642;2023-08-30T13:16:25;21.67;80.38
68251;DHT22;55066;51.560;4.642;2023-08-30T13:18:50;22.28;81.64
68251;DHT22;55066;51.560;4.642;2023-08-30T13:21:16;21.82;77.79
68251;DHT22;55066;51.560;4.642;2023-08-30T13:23:41;21.46;81.17
68251;DHT22;55066;51.560;4.642;2023-08-30T13:26:07;22.06;81.85
68251;DHT22;55066;51.560;4.642;2023-08-30T13:28:33;22.16;82.91
68251;DHT22;55066;51.560;4.642;2023-08-30T13:30:59;21.67;78.07
68251;DHT22;55066;51.560;4.642;2023-08-30T13:33:26;22.19;81.99
68251;DHT22;55066;51.560;4.642;2023-08-30T13:35:51;22.08;80.69
68251;DHT22;55066;51.560;4.642;2023-08-30T13:38:17;21.99;79.79
68251;DHT22;55066;51.560;4.642;2023-08-30T13:40:43;21.36;75.94
68251;DHT22;55066;51.560;4.642;2023-08-30T13:43:09;21.11;78.41
68251;DHT22;55066;51.560;4.642;2023-08-30T13:45:34;22.12;77.46
68251;DHT22;55066;51.560;4.642;2023-08-30T13:48:00;22.06;77.81
68251;DHT22;55066;51.560;4.642;2023-08-30T13:50:26;22.28;75.73
68251;DHT22;55066;51.560;4.642;2023-08-30T13:52:56;22.44;80.05
68251;DHT22;55066;51.560;4.642;2023-08-30T13:55:22;21.27;77.58
68251;DHT22;55066;51.560;4.642;2023-08-30T13:57:47;22.49;80.70
68251;DHT22;55066;51.560;4.642;2023-08-30T14:00:13;22.91;77.95
68251;DHT22;55066;51.560;4.642;2023-08-30T14:02:39;23.39;79.53
68251;DHT22;55066;51.560;4.642;2023-08-30T14:05:04;22.29;77.92
68251;DHT22;55066;51.560;4.642;2023-08-30T14:07:31;23.90;77.70
68251;DHT22;55066;51.560;4.642;2023-08-30T14:09:56;22.50;78.31
68251;DHT22;55066;51.560;4.642;2023-08-30T14:12:23;23.67;78.78
68251;DHT22;55066;51.560;4.642;2023-08-30T14:14:49;23.85;71.72
68251;DHT22;55066;51.560;4.642;2023-08-30T14:17:14;22.87;74.19
68251;DHT22;55066;51.560;4.642;2023-08-30T14:19:40;22.91;77.13
68251;DHT22;55066;51.560;4.642;2023-08-30T14:22:05;23.29;75.52
68251;DHT22;55066;51.560;4.642;2023-08-30T14:24:31;24.29;77.10
68251;DHT22;55066;51.560;4.642;2023-08-30T14:27:00;23.52;73.12
68251;DHT22;55066;51.560;4.642;2023-08-30T14:29:25;23.77;71.42
68251;DHT22;55066;51.560;4.642;2023-08-30T14:31:51;23.75;73.62
68251;DHT22;55066;51.560;4.642;2023-08-30T14:34:17;23.61;73.62
68251;DHT22;55066;51.560;4.642;2023-08-30T14:36:42;23.80;72.68
68251;DHT22;55066;51.560;4.642;2023-08-30T14:39:08;24.28;75.50
68251;DHT22;55066;51.560;4.642;2023-08-30T14:41:35;23.61;70.76
68251;DHT22;55066;51.560;4.642;2023-08-30T14:44:04;24.51;74.87
68251;DHT22;55066;51.560;4.642;2023-08-30T14:46:29;24.21;74.15
68251;DHT22;55066;51.560;4.642;2023-08-30T14:48:55;24.08;74.26
68251;DHT22;55066;51.560;4.642;2023-08-30T14:51:20;24.91;74.74
68251;DHT22;55066;51.560;4.642;2023-08-30T14:53:46;22.61;71.82
68251;DHT22;55066;51.560;4.642;2023-08-30T14:56:11;22.90;74.21
68251;DHT22;55066;51.560;4.642;2023-08-30T14:58:39;23.32;78.41
68251;DHT22;55066;51.560;4.642;2023-08-30T15:01:05;23.16;77.18
68251;DHT22;55066;51.560;4.642;2023-08-30T15:03:31;23.50;75.86
68251;DHT22;55066;51.560;4.642;2023-08-30T15:05:57;23.04;77.79
68251;DHT22;55066;51.560;4.642;2023-08-30T15:08:23;22.81;77.82
68251;DHT22;55066;51.560;4.642;2023-08-30T15:10:49;22.78;75.61
68251;DHT22;55066;51.560;4.642;2023-08-30T15:13:17;22.72;74.64
68251;DHT22;55066;51.560;4.642;2023-08-30T15:15:42;22.87;76.28
68251;DHT22;55066;51.560;4.642;2023-08-30T15:18:08;23.32;74.34
68251;DHT22;55066;51.560;4.642;2023-08-30T15:20:38;23.02;76.22
68251;DHT22;55066;51.560;4.642;2023-08-30T15:23:03;22.74;77.12
68251;DHT22;55066;51.560;4.642;2023-08-30T15:25:29;21.79;78.96
68251;DHT22;55066;51.560;4.642;2023-08-30T15:27:56;22.60;77.16
68251;DHT22;55066;51.560;4.642;2023-08-30T15:30:22;22.58;77.42
68251;DHT22;55066;51.560;4.642;2023-08-30T15:32:48;22.53;75.41
68251;DHT22;55066;51.560;4.642;2023-08-30T15:35:13;22.20;74.43
68251;DHT22;55066;51.560;4.642;2023-08-30T15:37:39;22.56;74.15